Terminal Aerodrome Forecast
Issued by NWS

Home | Current Version | Previous Version | Text Only | Print | Product List | Glossary On
Versions: 1 2 3 4 5 6 7 8 9 10 11 12 13 14 15 16 17 18
000
FTUS44 KTSA 040200 AAA
TAFFYV
TAF AMD
KFYV 040208Z 0402/0424 VRB04KT P6SM OVC007
      TEMPO 0402/0404 2SM -RA BR OVC004
     FM040400 04002KT 3SM -RA BR OVC005
     FM041500 02010G16KT 3SM PL OVC007
     FM042100 01008KT 1SM -SN BKN007 OVC015=

USA.gov is the U.S. government's official web portal to all federal, state and local government web resources and services.